Bavaria

Go HERE for most recent data if this page is not up to date.

Jump to table bottom
Date Time Temp F RH % AVG Wind Max Wind Wind Dir 24 Snow Depth
*11/28/22 22 -0.9 71 2 5 NW - 327 0.2 38.9
*11/28/22 21 -0.2 61 3 5 W - 257 0.2 39.2
*11/28/22 20 -1.2 61 3 6 NW - 332 0.2 39.2
*11/28/22 19 -1.5 61 4 8 N - 340 0.2 39.3
*11/28/22 18 -1.1 62 4 7 N - 347 0.2 39.0
*11/28/22 17 1.0 49 5 8 NW - 331 0.0 38.5
*11/28/22 16 5.7 50 3 7 NW - 299 -0.2 38.3
*11/28/22 15 5.5 49 3 7 SW - 234 -0.3 38.3
*11/28/22 14 10.3 35 4 9 SE - 141 -0.5 38.3
*11/28/22 13 10.2 42 3 7 S - 185 -0.6 38.3
*11/28/22 12 8.8 36 3 6 S - 182 -0.3 38.9
*11/28/22 11 2.7 42 3 7 W - 274 -0.2 39.0
*11/28/22 10 5.6 62 3 6 E - 90 -0.2 39.6
*11/28/22 09 2.2 42 2 8 S - 185 0.0 40.2
*11/28/22 08 -0.6 52 4 12 S - 164 0.3 40.3
*11/28/22 07 -1.7 61 3 7 N - 22 0.1 40.2
*11/28/22 06 -1.4 75 3 9 NE - 37 0.2 40.2
*11/28/22 05 0.4 80 4 16 SE - 143 0.1 40.3
*11/28/22 04 1.2 78 9 20 SW - 217 0.1 40.5
*11/28/22 03 2.1 81 5 15 W - 260 0.1 40.6
*11/28/22 02 2.5 81 10 25 NW - 332 0.2 40.8
*11/28/22 01 3.6 81 16 24 SW - 240 0.1 41.1
*11/28/22 00 4.4 81 17 29 W - 281 0.1 41.2
*11/27/22 23 5.1 81 18 28 W - 250 0.1 41.6
*11/27/22 22 5.3 82 21 31 W - 289 0.1 40.6
*11/27/22 21 7.6 83 19 28 W - 281 0.0 38.0
*11/27/22 20 13.6 82 20 31 W - 258 0.2 37.1
*11/27/22 19 14.1 82 21 35 W - 251 0.2 36.5
*11/27/22 18 14.3 80 18 34 W - 268 0.2 36.5
*11/27/22 17 14.3 79 17 26 SW - 237 0.2 36.1
*11/27/22 16 14.8 77 18 29 SW - 238 0.2 36.4
*11/27/22 15 14.8 78 17 25 SW - 233 0.2 36.3
*11/27/22 14 15.1 78 16 29 SW - 246 0.2 36.2
*11/27/22 13 15.5 79 18 31 SW - 243 0.2 36.6
*11/27/22 12 15.2 79 19 31 SW - 246 0.2 36.5
*11/27/22 11 15.1 76 15 23 SW - 240 0.2 35.7
*11/27/22 10 13.9 79 14 23 W - 265 0.2 35.8
*11/27/22 09 14.2 77 18 25 W - 257 0.2 35.9
*11/27/22 08 14.1 74 18 29 SW - 219 0.2 36.0
*11/27/22 07 14.3 71 17 28 W - 256 0.1 36.0
*11/27/22 06 14.0 73 18 28 W - 270 0.2 35.7
*11/27/22 05 15.2 65 19 33 SW - 237 0.1 35.1
*11/27/22 04 17.3 40 15 25 W - 263 0.2 35.1
*11/27/22 03 16.8 40 12 21 SW - 239 0.2 35.1
*11/27/22 02 16.5 42 13 23 W - 263 0.2 35.1
*11/27/22 01 15.9 47 10 20 W - 272 0.2 35.1
*11/27/22 00 16.8 43 9 14 SW - 215 0.2 35.1
.